createdAt,value
2017-05-13T00:00:55.869Z,87.12
2017-05-13T00:02:05.814Z,87.5
2017-05-13T00:03:16.079Z,86.83
2017-05-13T00:04:26.341Z,87.12
2017-05-13T00:05:36.604Z,87.21
2017-05-13T00:06:46.864Z,87.12
2017-05-13T00:07:57.120Z,87.12
2017-05-13T00:09:07.392Z,87.12
2017-05-13T00:10:17.333Z,87.69
2017-05-13T00:11:27.585Z,87.59
2017-05-13T00:12:37.885Z,87.5
2017-05-13T00:13:48.144Z,87.59
2017-05-13T00:14:58.406Z,87.59
2017-05-13T00:16:08.666Z,86.93
2017-05-13T00:17:18.615Z,87.31
2017-05-13T00:18:28.874Z,87.31
2017-05-13T00:19:39.125Z,86.83
2017-05-13T00:20:49.384Z,87.02
2017-05-13T00:21:59.658Z,86.74
2017-05-13T00:23:09.917Z,87.4
2017-05-13T00:24:19.859Z,87.69
2017-05-13T00:25:30.117Z,87.69
2017-05-13T00:26:40.372Z,87.78
2017-05-13T00:27:50.636Z,87.5
2017-05-13T00:29:00.902Z,87.21
2017-05-13T00:30:11.166Z,87.02
2017-05-13T00:31:21.107Z,86.93
2017-05-13T00:32:31.369Z,86.83
2017-05-13T00:33:41.372Z,87.02
2017-05-13T00:34:51.380Z,87.02
2017-05-13T00:36:01.332Z,87.02
2017-05-13T00:37:11.592Z,87.12
2017-05-13T00:38:21.535Z,87.02
2017-05-13T00:39:31.793Z,86.93
2017-05-13T00:40:41.736Z,87.21
2017-05-13T00:41:52.002Z,88.45
2017-05-13T00:43:02.265Z,88.35
2017-05-13T00:44:12.522Z,87.88
2017-05-13T00:45:22.790Z,87.12
2017-05-13T00:46:33.039Z,87.69
2017-05-13T00:47:43.295Z,87.21
2017-05-13T00:48:53.561Z,87.5
2017-05-13T00:50:03.817Z,86.93
2017-05-13T00:51:13.757Z,87.46
2017-05-13T00:52:24.009Z,87.31
2017-05-13T00:53:34.261Z,87.84
2017-05-13T00:54:44.521Z,88.4
2017-05-13T00:55:54.788Z,87.93
2017-05-13T00:57:05.052Z,87.74
2017-05-13T00:58:15.316Z,87.84
2017-05-13T00:59:24.953Z,87.93
2017-05-13T01:00:35.214Z,87.65
2017-05-13T01:01:45.474Z,88.31
2017-05-13T01:02:55.418Z,88.4
2017-05-13T01:04:05.674Z,88.49
2017-05-13T01:05:15.303Z,88.07
2017-05-13T01:06:25.559Z,88.07
2017-05-13T01:07:35.817Z,87.88
2017-05-13T01:08:46.079Z,88.17
2017-05-13T01:09:56.346Z,88.07
2017-05-13T01:11:06.612Z,88.07
2017-05-13T01:12:16.871Z,88.07
2017-05-13T01:13:27.130Z,87.21
2017-05-13T01:14:37.386Z,87.12
2017-05-13T01:15:47.688Z,87.69
2017-05-13T01:16:57.950Z,87.5
2017-05-13T01:18:07.898Z,87.59
2017-05-13T01:19:17.216Z,87.5
2017-05-13T01:20:27.473Z,87.59
2017-05-13T01:21:37.418Z,87.21
2017-05-13T01:22:47.678Z,87.4
2017-05-13T01:23:57.939Z,87.69
2017-05-13T01:25:08.191Z,87.4
2017-05-13T01:26:17.825Z,86.74
2017-05-13T01:27:28.081Z,87.02
2017-05-13T01:28:38.338Z,87.21
2017-05-13T01:29:48.600Z,86.83
2017-05-13T01:30:58.238Z,86.55
2017-05-13T01:32:08.490Z,86.74
2017-05-13T01:33:18.472Z,86.46
2017-05-13T01:34:28.730Z,86.36
2017-05-13T01:35:38.987Z,86.74
2017-05-13T01:36:49.246Z,86.55
2017-05-13T01:37:59.521Z,87.12
2017-05-13T01:39:09.850Z,86.65
2017-05-13T01:40:19.793Z,87.12
2017-05-13T01:41:29.735Z,87.12
2017-05-13T01:42:39.729Z,87.4
2017-05-13T01:43:49.677Z,87.59
2017-05-13T01:44:59.931Z,86.74
2017-05-13T01:46:09.560Z,86.83
2017-05-13T01:47:19.819Z,87.21
2017-05-13T01:48:30.075Z,87.69
2017-05-13T01:49:40.332Z,87.88
2017-05-13T01:50:50.328Z,87.5
2017-05-13T01:52:00.278Z,87.69
2017-05-13T01:53:10.228Z,87.12
2017-05-13T01:54:20.176Z,86.83
2017-05-13T01:55:30.118Z,87.69
2017-05-13T01:56:40.379Z,87.31
2017-05-13T01:57:50.638Z,87.31
2017-05-13T01:59:00.903Z,86.93
2017-05-13T02:00:10.845Z,86.89
2017-05-13T02:01:20.480Z,87.27
2017-05-13T02:02:30.742Z,87.27
2017-05-13T02:03:40.997Z,87.65
2017-05-13T02:04:51.256Z,87.27
2017-05-13T02:06:01.513Z,87.46
2017-05-13T02:07:11.459Z,87.46
2017-05-13T02:08:21.088Z,87.46
2017-05-13T02:09:31.032Z,87.17
2017-05-13T02:10:41.296Z,87.65
2017-05-13T02:11:51.601Z,87.84
2017-05-13T02:13:01.868Z,87.46
2017-05-13T02:14:11.808Z,88.12
2017-05-13T02:15:21.446Z,88.59
2017-05-13T02:16:31.700Z,88.97
2017-05-13T02:17:41.960Z,88.97
2017-05-13T02:18:52.264Z,88.87
2017-05-13T02:20:02.210Z,88.78
2017-05-13T02:21:11.838Z,88.92
2017-05-13T02:22:20.886Z,89.3
2017-05-13T02:23:31.151Z,89.01
2017-05-13T02:24:41.413Z,88.92
2017-05-13T02:25:51.671Z,88.82
2017-05-13T02:27:01.937Z,88.54
2017-05-13T02:28:12.192Z,88.17
2017-05-13T02:29:22.140Z,88.17
2017-05-13T02:30:32.439Z,88.64
2017-05-13T02:31:42.701Z,88.64
2017-05-13T02:32:52.957Z,88.35
2017-05-13T02:34:03.221Z,87.59
2017-05-13T02:35:13.482Z,87.69
2017-05-13T02:36:23.111Z,87.88
2017-05-13T02:37:33.371Z,87.5
2017-05-13T02:38:43.629Z,87.78
2017-05-13T02:39:53.597Z,87.59
2017-05-13T02:41:03.854Z,87.88
2017-05-13T02:42:14.117Z,87.69
2017-05-13T02:43:23.748Z,87.69
2017-05-13T02:44:34.007Z,87.98
2017-05-13T02:45:44.265Z,87.69
2017-05-13T02:46:54.207Z,87.69
2017-05-13T02:48:04.474Z,87.31
2017-05-13T02:49:14.732Z,87.12
2017-05-13T02:50:24.369Z,86.74
2017-05-13T02:51:34.633Z,87.02
2017-05-13T02:52:44.575Z,86.93
2017-05-13T02:53:54.829Z,86.83
2017-05-13T02:55:05.089Z,87.59
2017-05-13T02:56:15.348Z,87.59
2017-05-13T02:57:24.985Z,87.31
2017-05-13T02:58:35.245Z,87.5
2017-05-13T02:59:45.512Z,87.4
2017-05-13T03:00:55.779Z,87.4
2017-05-13T03:02:05.722Z,87.78
2017-05-13T03:03:15.710Z,88.17
2017-05-13T03:04:25.969Z,88.73
2017-05-13T03:05:36.230Z,87.98
2017-05-13T03:06:46.482Z,87.98
2017-05-13T03:07:56.761Z,88.35
2017-05-13T03:09:06.702Z,88.07
2017-05-13T03:10:16.650Z,87.69
2017-05-13T03:11:26.591Z,87.69
2017-05-13T03:12:36.849Z,87.12
2017-05-13T03:13:47.105Z,87.31
2017-05-13T03:14:57.042Z,87.5
2017-05-13T03:16:07.304Z,88.07
2017-05-13T03:17:16.932Z,87.69
2017-05-13T03:18:27.193Z,88.17
2017-05-13T03:19:37.138Z,87.98
2017-05-13T03:20:47.084Z,87.69
2017-05-13T03:21:57.340Z,88.35
2017-05-13T03:23:07.599Z,88.73
2017-05-13T03:24:17.862Z,88.35
2017-05-13T03:25:28.125Z,88.73
2017-05-13T03:26:38.441Z,88.45
2017-05-13T03:27:48.705Z,88.54
2017-05-13T03:28:58.021Z,87.98
2017-05-13T03:30:07.970Z,87.78
2017-05-13T03:31:17.919Z,87.12
2017-05-13T03:32:28.176Z,88.07
2017-05-13T03:33:38.119Z,88.73
2017-05-13T03:34:48.076Z,88.45
2017-05-13T03:35:58.337Z,88.07
2017-05-13T03:37:08.607Z,88.17
2017-05-13T03:38:18.866Z,87.98
2017-05-13T03:39:29.133Z,88.64
2017-05-13T03:40:39.398Z,88.54
2017-05-13T03:41:49.659Z,88.54
2017-05-13T03:42:59.932Z,88.17
2017-05-13T03:44:09.879Z,88.73
2017-05-13T03:45:19.828Z,88.54
2017-05-13T03:46:29.464Z,88.54
2017-05-13T03:47:39.718Z,89.01
2017-05-13T03:48:49.987Z,89.2
2017-05-13T03:49:59.944Z,88.73
2017-05-13T03:51:09.576Z,88.45
2017-05-13T03:52:19.842Z,88.07
2017-05-13T03:53:30.103Z,87.83
2017-05-13T03:54:40.073Z,87.92
2017-05-13T03:55:50.336Z,87.64
2017-05-13T03:57:00.589Z,87.73
2017-05-13T03:58:10.844Z,87.45
2017-05-13T03:59:20.790Z,88.02
2017-05-13T04:00:30.735Z,87.54
2017-05-13T04:01:40.994Z,87.73
2017-05-13T04:02:51.268Z,89.34
2017-05-13T04:04:01.524Z,88.3
2017-05-13T04:05:11.475Z,87.83
2017-05-13T04:06:21.422Z,87.83
2017-05-13T04:07:31.693Z,88.59
2017-05-13T04:08:41.956Z,87.54
2017-05-13T04:09:52.219Z,87.35
2017-05-13T04:11:02.480Z,87.92
2017-05-13T04:12:12.738Z,87.35
2017-05-13T04:13:22.373Z,87.35
2017-05-13T04:14:32.002Z,87.35
2017-05-13T04:15:41.947Z,86.88
2017-05-13T04:16:52.208Z,87.16
2017-05-13T04:18:02.474Z,87.35
2017-05-13T04:19:12.111Z,87.16
2017-05-13T04:20:22.378Z,87.54
2017-05-13T04:21:32.323Z,87.54
2017-05-13T04:22:42.266Z,87.68
2017-05-13T04:23:52.529Z,86.88
2017-05-13T04:25:02.487Z,87.59
2017-05-13T04:26:12.755Z,87.59
2017-05-13T04:27:22.697Z,87.12
2017-05-13T04:28:32.960Z,87.12
2017-05-13T04:29:42.898Z,87.12
2017-05-13T04:30:53.156Z,86.45
2017-05-13T04:32:03.408Z,86.26
2017-05-13T04:33:13.668Z,86.07
2017-05-13T04:34:23.299Z,86.16
2017-05-13T04:35:32.620Z,86.16
2017-05-13T04:36:42.564Z,86.55
2017-05-13T04:37:52.827Z,86.83
2017-05-13T04:39:03.085Z,87.4
2017-05-13T04:40:13.341Z,87.59
2017-05-13T04:41:23.008Z,87.49
2017-05-13T04:42:33.262Z,87.87
2017-05-13T04:43:43.521Z,87.77
2017-05-13T04:44:53.786Z,87.59
2017-05-13T04:46:03.423Z,87.77
2017-05-13T04:47:13.383Z,87.87
2017-05-13T04:48:23.642Z,88.16
2017-05-13T04:49:33.591Z,89.29
2017-05-13T04:50:43.849Z,88.82
2017-05-13T04:51:54.117Z,87.83
2017-05-13T04:53:04.377Z,88.06
2017-05-13T04:54:14.012Z,87.73
2017-05-13T04:55:24.264Z,87.73
2017-05-13T04:56:34.526Z,87.45
2017-05-13T04:57:44.794Z,87.4
2017-05-13T04:58:55.058Z,87.87
2017-05-13T05:00:05.321Z,87.83
2017-05-13T05:01:15.575Z,88.68
2017-05-13T05:02:25.835Z,88.3
2017-05-13T05:03:36.108Z,88.02
2017-05-13T05:04:46.368Z,87.73
2017-05-13T05:05:56.632Z,87.92
2017-05-13T05:07:06.889Z,87.92
2017-05-13T05:08:17.151Z,87.92
2017-05-13T05:09:27.408Z,88.21
2017-05-13T05:10:37.365Z,87.64
2017-05-13T05:11:47.321Z,88.11
2017-05-13T05:12:57.593Z,88.11
2017-05-13T05:14:07.543Z,88.21
2017-05-13T05:15:17.173Z,88.21
2017-05-13T05:16:27.430Z,87.92
2017-05-13T05:17:37.379Z,88.3
2017-05-13T05:18:47.649Z,88.21
2017-05-13T05:19:57.914Z,87.92
2017-05-13T05:21:07.860Z,87.16
2017-05-13T05:22:17.805Z,87.77
2017-05-13T05:23:27.751Z,87.3
2017-05-13T05:24:38.010Z,87.4
2017-05-13T05:25:48.273Z,87.3
2017-05-13T05:26:58.580Z,87.21
2017-05-13T05:28:08.832Z,86.93
2017-05-13T05:29:18.775Z,87.02
2017-05-13T05:30:28.730Z,87.59
2017-05-13T05:31:38.986Z,87.12
2017-05-13T05:32:49.240Z,87.68
2017-05-13T05:33:59.503Z,87.68
2017-05-13T05:35:09.448Z,87.87
2017-05-13T05:36:19.083Z,87.02
2017-05-13T05:37:29.030Z,87.21
2017-05-13T05:38:38.976Z,87.02
2017-05-13T05:39:49.240Z,86.93
2017-05-13T05:40:59.505Z,86.74
2017-05-13T05:42:09.461Z,86.74
2017-05-13T05:43:19.416Z,86.16
2017-05-13T05:44:29.674Z,86.07
2017-05-13T05:45:39.926Z,86.26
2017-05-13T05:46:49.875Z,86.07
2017-05-13T05:48:00.136Z,86.07
2017-05-13T05:49:09.773Z,85.55
2017-05-13T05:50:19.728Z,85.26
2017-05-13T05:51:29.988Z,85.55
2017-05-13T05:52:40.252Z,84.98
2017-05-13T05:53:50.507Z,84.12
2017-05-13T05:55:00.774Z,84.22
2017-05-13T05:56:10.456Z,84.03
2017-05-13T05:57:20.405Z,83.65
2017-05-13T05:58:30.668Z,83.84
2017-05-13T05:59:40.642Z,83.84
2017-05-13T06:00:50.962Z,83.31
2017-05-13T06:02:00.591Z,82.55
2017-05-13T06:03:10.532Z,82.46
2017-05-13T06:04:20.481Z,82.27
2017-05-13T06:05:30.737Z,81.98
2017-05-13T06:06:40.686Z,81.79
2017-05-13T06:07:51.013Z,81.51
2017-05-13T06:09:00.961Z,82.17
2017-05-13T06:10:11.223Z,82.84
2017-05-13T06:11:21.484Z,82.46
2017-05-13T06:12:31.745Z,83.31
2017-05-13T06:13:42.007Z,83.31
2017-05-13T06:14:52.269Z,82.79
2017-05-13T06:16:02.534Z,83.36
2017-05-13T06:17:12.205Z,82.98
2017-05-13T06:18:22.464Z,82.65
2017-05-13T06:19:32.727Z,83.03
2017-05-13T06:20:42.986Z,83.27
2017-05-13T06:21:53.245Z,83.27
2017-05-13T06:23:03.199Z,83.46
2017-05-13T06:24:13.460Z,84.5
2017-05-13T06:25:23.725Z,84.03
2017-05-13T06:26:33.674Z,84.03
2017-05-13T06:27:43.939Z,82.65
2017-05-13T06:28:53.881Z,82.17
2017-05-13T06:30:03.518Z,81.6
2017-05-13T06:31:12.836Z,81.41
2017-05-13T06:32:23.108Z,81.04
2017-05-13T06:33:33.372Z,80.37
2017-05-13T06:34:43.681Z,80.51
2017-05-13T06:35:53.944Z,80.51
2017-05-13T06:37:04.206Z,79.94
2017-05-13T06:38:13.844Z,79.65
2017-05-13T06:39:23.794Z,79.84
2017-05-13T06:40:34.054Z,79.74
2017-05-13T06:41:44.317Z,79.84
2017-05-13T06:42:54.580Z,80.41
2017-05-13T06:44:04.843Z,79.74
2017-05-13T06:45:14.794Z,78.8
2017-05-13T06:46:24.746Z,79.36
2017-05-13T06:47:35.004Z,79.36
2017-05-13T06:48:45.273Z,78.8
2017-05-13T06:49:55.537Z,78.93
2017-05-13T06:51:05.174Z,79.03
2017-05-13T06:52:14.812Z,78.23
2017-05-13T06:53:25.075Z,78.42
2017-05-13T06:54:35.031Z,79.41
2017-05-13T06:55:45.293Z,78.74
2017-05-13T06:56:55.251Z,78.17
2017-05-13T06:58:05.516Z,79.03
2017-05-13T06:59:15.469Z,78.36
2017-05-13T07:00:25.423Z,78.45
2017-05-13T07:01:35.691Z,78.08
2017-05-13T07:02:45.971Z,78.74
2017-05-13T07:03:56.232Z,79.03
2017-05-13T07:05:06.492Z,79.74
2017-05-13T07:06:16.751Z,78.93
2017-05-13T07:07:26.696Z,79.17
2017-05-13T07:08:36.961Z,78.99
2017-05-13T07:09:47.220Z,80.22
2017-05-13T07:10:57.168Z,79.65
2017-05-13T07:12:07.125Z,79.94
2017-05-13T07:13:17.070Z,81.55
2017-05-13T07:14:27.384Z,81.84
2017-05-13T07:15:37.335Z,80.32
2017-05-13T07:16:47.604Z,80.6
2017-05-13T07:17:57.867Z,80.22
2017-05-13T07:19:07.810Z,80.03
2017-05-13T07:20:17.756Z,79.84
2017-05-13T07:21:27.708Z,79.41
2017-05-13T07:22:37.970Z,78.89
2017-05-13T07:23:48.233Z,78.55
2017-05-13T07:24:58.177Z,79.03
2017-05-13T07:26:08.441Z,79.12
2017-05-13T07:27:18.390Z,78.27
2017-05-13T07:28:28.649Z,78.74
2017-05-13T07:29:38.596Z,78.27
2017-05-13T07:30:48.228Z,78.45
2017-05-13T07:31:58.531Z,78.64
2017-05-13T07:33:08.790Z,78.99
2017-05-13T07:34:19.053Z,79.84
2017-05-13T07:35:29.314Z,80.13
2017-05-13T07:36:39.264Z,79.5
2017-05-13T07:37:49.532Z,79.03
2017-05-13T07:38:59.481Z,78.27
2017-05-13T07:40:09.746Z,78.55
2017-05-13T07:41:19.695Z,78.69
2017-05-13T07:42:29.958Z,77.55
2017-05-13T07:43:40.220Z,77.17
2017-05-13T07:44:50.483Z,76.4
2017-05-13T07:46:00.441Z,76.44
2017-05-13T07:47:10.713Z,75.59
2017-05-13T07:48:20.973Z,75.49
2017-05-13T07:49:31.235Z,74.73
2017-05-13T07:50:41.496Z,74.54
2017-05-13T07:51:51.757Z,74.54
2017-05-13T07:53:02.025Z,74.35
2017-05-13T07:54:11.971Z,74.39
2017-05-13T07:55:22.228Z,73.91
2017-05-13T07:56:32.489Z,72.58
2017-05-13T07:57:42.795Z,72.58
2017-05-13T07:58:53.068Z,72.67
2017-05-13T08:00:03.334Z,72.67
2017-05-13T08:01:12.979Z,71.91
2017-05-13T08:02:22.306Z,71.82
2017-05-13T08:03:32.570Z,71.25
2017-05-13T08:04:42.831Z,71.15
2017-05-13T08:05:53.096Z,71.53
2017-05-13T08:07:03.360Z,71.38
2017-05-13T08:08:13.636Z,71.47
2017-05-13T08:09:23.911Z,70.81
2017-05-13T08:10:34.220Z,70.14
2017-05-13T08:11:43.866Z,69.67
2017-05-13T08:12:54.137Z,69.95
2017-05-13T08:14:04.406Z,69.85
2017-05-13T08:15:14.673Z,69.89
2017-05-13T08:16:24.622Z,69.51
2017-05-13T08:17:34.567Z,69.04
2017-05-13T08:18:44.827Z,68.27
2017-05-13T08:19:54.771Z,66.85
2017-05-13T08:21:05.036Z,66.5
2017-05-13T08:22:15.299Z,66.88
2017-05-13T08:23:25.265Z,66.21
2017-05-13T08:24:35.535Z,66.02
2017-05-13T08:25:45.798Z,65.83
2017-05-13T08:26:55.743Z,65.26
2017-05-13T08:28:06.048Z,65.07
2017-05-13T08:29:16.309Z,65.55
2017-05-13T08:30:25.952Z,65.73
2017-05-13T08:31:36.218Z,65.64
2017-05-13T08:32:46.489Z,65.45
2017-05-13T08:33:56.443Z,65.42
2017-05-13T08:35:06.440Z,65.13
2017-05-13T08:36:16.390Z,65.55
2017-05-13T08:37:26.662Z,64.84
2017-05-13T08:38:36.926Z,65.64
2017-05-13T08:39:47.199Z,65.13
2017-05-13T08:40:57.470Z,65.61
2017-05-13T08:42:07.737Z,65.23
2017-05-13T08:43:17.690Z,65.23
2017-05-13T08:44:27.650Z,65.61
2017-05-13T08:45:37.916Z,65.42
2017-05-13T08:46:48.185Z,65.61
2017-05-13T08:47:58.132Z,65.13
2017-05-13T08:49:08.399Z,65.23
2017-05-13T08:50:18.666Z,65.7
2017-05-13T08:51:28.939Z,65.61
2017-05-13T08:52:39.206Z,65.99
2017-05-13T08:53:49.171Z,65.51
2017-05-13T08:54:59.122Z,65.23
2017-05-13T08:56:09.075Z,65.23
2017-05-13T08:57:19.364Z,64.75
2017-05-13T08:58:29.055Z,65.03
2017-05-13T08:59:39.014Z,64.84
2017-05-13T09:00:49.280Z,64.84
2017-05-13T09:01:59.546Z,64.56
2017-05-13T09:03:09.851Z,64.78
2017-05-13T09:04:19.826Z,64.69
2017-05-13T09:05:29.783Z,63.73
2017-05-13T09:06:40.052Z,63.83
2017-05-13T09:07:50.313Z,64.12
2017-05-13T09:09:00.578Z,64.21
2017-05-13T09:10:10.215Z,63.64
2017-05-13T09:11:20.485Z,63.76
2017-05-13T09:12:31.049Z,64.05
2017-05-13T09:13:41.042Z,63.86
2017-05-13T09:14:51.308Z,63.48
2017-05-13T09:16:01.577Z,62.91
2017-05-13T09:17:11.525Z,62.91
2017-05-13T09:18:21.484Z,62.81
2017-05-13T09:19:31.119Z,63.76
2017-05-13T09:20:41.064Z,63
2017-05-13T09:21:51.014Z,62.52
2017-05-13T09:23:01.278Z,62.52
2017-05-13T09:24:11.789Z,62.18
2017-05-13T09:25:22.052Z,62.46
2017-05-13T09:26:32.322Z,61.8
2017-05-13T09:27:42.586Z,61.8
2017-05-13T09:28:52.867Z,61.6
2017-05-13T09:30:03.143Z,61.32
2017-05-13T09:31:13.417Z,60.94
2017-05-13T09:32:22.744Z,60.75
2017-05-13T09:33:33.002Z,60.84
2017-05-13T09:34:43.262Z,61.13
2017-05-13T09:35:53.535Z,60.87
2017-05-13T09:37:03.480Z,60.49
2017-05-13T09:38:13.740Z,60.78
2017-05-13T09:39:24.008Z,61.07
2017-05-13T09:40:34.275Z,59.92
2017-05-13T09:41:46.526Z,59.73
2017-05-13T09:42:56.796Z,58.97
2017-05-13T09:44:07.064Z,59.34
2017-05-13T09:45:17.014Z,59.38
2017-05-13T09:46:26.972Z,60.21
2017-05-13T09:47:36.925Z,58.99
2017-05-13T09:48:47.201Z,59.09
2017-05-13T09:49:57.472Z,58.99
2017-05-13T09:51:07.770Z,58.42
2017-05-13T09:52:17.766Z,59.28
2017-05-13T09:53:28.034Z,58.51
2017-05-13T09:54:38.305Z,58.51
2017-05-13T09:55:47.948Z,58.23
2017-05-13T09:56:57.900Z,58.7
2017-05-13T09:58:08.166Z,57.75
2017-05-13T09:59:17.499Z,58.14
2017-05-13T10:00:27.451Z,58.14
2017-05-13T10:01:37.722Z,58.73
2017-05-13T10:02:47.984Z,57.87
2017-05-13T10:03:58.250Z,57.97
2017-05-13T10:05:08.514Z,58.73
2017-05-13T10:06:18.153Z,57.24
2017-05-13T10:07:28.457Z,57.24
2017-05-13T10:08:38.729Z,55.8
2017-05-13T10:09:48.996Z,56.09
2017-05-13T10:10:59.264Z,56.09
2017-05-13T10:12:09.524Z,56.18
2017-05-13T10:13:19.792Z,55.52
2017-05-13T10:14:30.079Z,55.52
2017-05-13T10:15:40.031Z,56.38
2017-05-13T10:16:50.299Z,56.28
2017-05-13T10:18:00.570Z,55.9
2017-05-13T10:19:10.838Z,56.28
2017-05-13T10:20:20.785Z,55.71
2017-05-13T10:21:30.738Z,56.38
2017-05-13T10:22:40.698Z,56.38
2017-05-13T10:23:50.963Z,56.28
2017-05-13T10:25:01.228Z,56.47
2017-05-13T10:26:10.550Z,55.61
2017-05-13T10:27:20.504Z,55.49
2017-05-13T10:28:30.773Z,55.68
2017-05-13T10:29:40.723Z,54.72
2017-05-13T10:30:50.995Z,55.3
2017-05-13T10:32:01.269Z,55.49
2017-05-13T10:33:11.229Z,55.49
2017-05-13T10:34:21.188Z,55.49
2017-05-13T10:35:31.453Z,55.77
2017-05-13T10:36:41.412Z,55.4
2017-05-13T10:37:51.678Z,54.63
2017-05-13T10:39:01.952Z,55.01
2017-05-13T10:40:12.221Z,55.58
2017-05-13T10:41:22.170Z,55.11
2017-05-13T10:42:32.486Z,55.3
2017-05-13T10:43:42.761Z,55.11
2017-05-13T10:44:53.025Z,54.44
2017-05-13T10:46:02.665Z,54.53
2017-05-13T10:47:12.620Z,55.2
2017-05-13T10:48:22.573Z,55.11
2017-05-13T10:49:32.846Z,54.63
2017-05-13T10:50:43.162Z,54.53
2017-05-13T10:51:53.166Z,54.53
2017-05-13T10:53:03.120Z,54.25
2017-05-13T10:54:12.764Z,54.22
2017-05-13T10:55:22.760Z,54.13
2017-05-13T10:56:33.030Z,53.65
2017-05-13T10:57:43.032Z,53.74
2017-05-13T10:58:53.302Z,54.03
2017-05-13T11:00:03.256Z,54.03
2017-05-13T11:01:12.898Z,54.13
2017-05-13T11:02:22.854Z,54.44
2017-05-13T11:03:33.117Z,53.84
2017-05-13T11:04:43.068Z,54.22
2017-05-13T11:05:53.016Z,54.7
2017-05-13T11:07:03.287Z,54.5
2017-05-13T11:08:13.554Z,54.03
2017-05-13T11:09:26.795Z,54.13
2017-05-13T11:10:37.063Z,53.58
2017-05-13T11:11:46.698Z,53.67
2017-05-13T11:12:56.657Z,53.29
2017-05-13T11:14:06.934Z,52.81
2017-05-13T11:15:17.201Z,53.39
2017-05-13T11:16:27.155Z,53.86
2017-05-13T11:17:37.109Z,53.49
2017-05-13T11:18:47.380Z,53
2017-05-13T11:19:57.653Z,53.49
2017-05-13T11:21:07.601Z,56.16
2017-05-13T11:22:17.555Z,57.21
2017-05-13T11:23:27.825Z,57.4
2017-05-13T11:24:38.097Z,57.78
2017-05-13T11:25:48.367Z,57.85
2017-05-13T11:26:58.639Z,58.8
2017-05-13T11:28:08.902Z,58.04
2017-05-13T11:29:19.177Z,58.33
2017-05-13T11:30:29.131Z,58.51
2017-05-13T11:31:39.082Z,58.99
2017-05-13T11:32:49.040Z,58.61
2017-05-13T11:33:59.314Z,57.28
2017-05-13T11:35:09.584Z,56.7
2017-05-13T11:36:19.587Z,56.6
2017-05-13T11:37:29.851Z,55.75
2017-05-13T11:38:40.122Z,55.58
2017-05-13T11:39:50.077Z,55.49
2017-05-13T11:41:00.033Z,56.06
2017-05-13T11:42:09.985Z,55.58
2017-05-13T11:43:20.255Z,54.91
2017-05-13T11:44:30.207Z,54.91
2017-05-13T11:45:40.167Z,54.72
2017-05-13T11:46:50.118Z,54.63
2017-05-13T11:48:00.392Z,54.63
2017-05-13T11:49:10.657Z,54.44
2017-05-13T11:50:20.613Z,54.34
2017-05-13T11:51:30.881Z,53.96
2017-05-13T11:52:41.151Z,53.51
2017-05-13T11:53:51.417Z,52.26
2017-05-13T11:55:01.057Z,52.36
2017-05-13T11:56:11.324Z,52.46
2017-05-13T11:57:21.594Z,52.1
2017-05-13T11:58:31.585Z,52.39
2017-05-13T11:59:41.851Z,52.1
2017-05-13T12:00:51.817Z,50.95
2017-05-13T12:02:02.088Z,50.21
2017-05-13T12:03:12.045Z,49.16
2017-05-13T12:04:22.310Z,48.68
2017-05-13T12:05:32.586Z,48.21
2017-05-13T12:06:42.861Z,46.61
2017-05-13T12:07:53.141Z,46.51
2017-05-13T12:09:03.104Z,46.25
2017-05-13T12:10:12.755Z,46.15
2017-05-13T12:11:22.717Z,46.25
2017-05-13T12:12:32.669Z,43.68
2017-05-13T12:13:42.632Z,43.47
2017-05-13T12:14:52.900Z,43.39
2017-05-13T12:16:03.169Z,43.49
2017-05-13T12:17:13.441Z,42.63
2017-05-13T12:18:23.391Z,42.65
2017-05-13T12:19:33.346Z,42.07
2017-05-13T12:20:42.990Z,41.69
2017-05-13T12:21:52.631Z,41.9
2017-05-13T12:23:02.593Z,41.8
2017-05-13T12:24:12.585Z,42.47
2017-05-13T12:25:22.855Z,43.07
2017-05-13T12:26:32.845Z,43.19
2017-05-13T12:27:42.814Z,43.5
2017-05-13T12:28:52.775Z,43.4
2017-05-13T12:30:03.051Z,42.66
2017-05-13T12:31:12.702Z,42.2
2017-05-13T12:32:22.355Z,42.3
2017-05-13T12:33:32.633Z,41.82
2017-05-13T12:34:42.604Z,40.56
2017-05-13T12:35:52.249Z,39.89
2017-05-13T12:37:02.526Z,40.37
2017-05-13T12:38:12.481Z,37.87
2017-05-13T12:39:22.759Z,37.49
2017-05-13T12:40:32.721Z,38.07
2017-05-13T12:41:42.989Z,38.26
2017-05-13T12:42:52.953Z,36.62
2017-05-13T12:44:03.228Z,36.43
2017-05-13T12:45:13.183Z,36.6
2017-05-13T12:46:23.455Z,36.99
2017-05-13T12:47:33.728Z,37.76
2017-05-13T12:48:43.686Z,36.91
2017-05-13T12:49:53.960Z,36.43
2017-05-13T12:51:04.238Z,36.15
2017-05-13T12:52:14.199Z,37.59
2017-05-13T12:53:24.467Z,36.24
2017-05-13T12:54:34.748Z,36.24
2017-05-13T12:55:45.021Z,34.22
2017-05-13T12:56:55.289Z,34.22
2017-05-13T12:58:05.555Z,34.31
2017-05-13T12:59:15.248Z,35.08
2017-05-13T13:00:25.207Z,35.47
2017-05-13T13:01:35.480Z,33.45
2017-05-13T13:02:45.125Z,33.62
2017-05-13T13:03:55.086Z,32.95
2017-05-13T13:05:05.042Z,34.11
2017-05-13T13:06:15.004Z,34.01
2017-05-13T13:07:25.346Z,32.26
2017-05-13T13:08:35.727Z,33.21
2017-05-13T13:09:46.113Z,34.55
2017-05-13T13:10:56.692Z,34.34
2017-05-13T13:12:06.801Z,34.61
2017-05-13T13:13:17.185Z,34.52
2017-05-13T13:14:27.619Z,36.05
2017-05-13T13:15:37.947Z,35
2017-05-13T13:16:47.908Z,35.57
2017-05-13T13:17:57.863Z,35
2017-05-13T13:19:08.136Z,35.46
2017-05-13T13:20:18.098Z,34.98
2017-05-13T13:21:27.747Z,34.39
2017-05-13T13:22:38.018Z,36.79
2017-05-13T13:23:48.292Z,35.92
2017-05-13T13:24:58.559Z,36.02
2017-05-13T13:26:08.204Z,35.44
2017-05-13T13:27:18.472Z,37.45
2017-05-13T13:28:28.743Z,36.49
2017-05-13T13:29:39.013Z,37.74
2017-05-13T13:30:49.282Z,37.09
2017-05-13T13:31:59.559Z,34.79
2017-05-13T13:33:09.830Z,35.75
2017-05-13T13:34:20.099Z,34.69
2017-05-13T13:35:30.387Z,34.59
2017-05-13T13:36:40.347Z,34.04
2017-05-13T13:37:50.306Z,34.04
2017-05-13T13:39:00.581Z,35.38
2017-05-13T13:40:10.224Z,36.34
2017-05-13T13:41:20.493Z,34.81
2017-05-13T13:42:30.756Z,35.08
2017-05-13T13:43:41.025Z,35.08
2017-05-13T13:44:50.977Z,35.83
2017-05-13T13:46:00.932Z,36.98
2017-05-13T13:47:11.202Z,37.07
2017-05-13T13:48:21.156Z,38.6
2017-05-13T13:49:31.420Z,37.65
2017-05-13T13:50:41.375Z,37.74
2017-05-13T13:51:51.648Z,37.16
2017-05-13T13:53:01.287Z,38.12
2017-05-13T13:54:11.560Z,38.41
2017-05-13T13:55:21.838Z,38.22
2017-05-13T13:56:32.111Z,38.72
2017-05-13T13:57:42.386Z,38.34
2017-05-13T13:58:52.037Z,38.41
2017-05-13T14:00:01.686Z,39.28
2017-05-13T14:01:11.639Z,39.65
2017-05-13T14:02:21.910Z,38.89
2017-05-13T14:03:32.183Z,38.98
2017-05-13T14:04:42.138Z,38.6
2017-05-13T14:05:52.093Z,38.87
2017-05-13T14:07:02.367Z,38.2
2017-05-13T14:08:12.639Z,38.51
2017-05-13T14:09:22.907Z,38.6
2017-05-13T14:10:33.180Z,38.6
2017-05-13T14:11:43.449Z,38.51
2017-05-13T14:12:53.718Z,39.37
2017-05-13T14:14:03.989Z,39.18
2017-05-13T14:15:14.264Z,38.79
2017-05-13T14:16:24.219Z,38.89
2017-05-13T14:17:34.489Z,40.52
2017-05-13T14:18:44.440Z,38.89
2017-05-13T14:19:54.705Z,40.69
2017-05-13T14:21:04.976Z,39.25
2017-05-13T14:22:14.614Z,39.06
2017-05-13T14:23:24.884Z,39.25
2017-05-13T14:24:35.153Z,39.72
2017-05-13T14:25:45.418Z,39.81
2017-05-13T14:26:55.686Z,39.62
2017-05-13T14:28:05.636Z,39.62
2017-05-13T14:29:15.588Z,42.2
2017-05-13T14:30:25.545Z,41.15
2017-05-13T14:31:35.811Z,41.15
2017-05-13T14:32:46.077Z,40.67
2017-05-13T14:33:56.343Z,40.29
2017-05-13T14:35:06.298Z,40.58
2017-05-13T14:36:16.573Z,40.67
2017-05-13T14:37:26.213Z,40.48
2017-05-13T14:38:36.479Z,39.33
2017-05-13T14:39:46.751Z,39.81
2017-05-13T14:40:57.024Z,40.38
2017-05-13T14:42:06.974Z,40.48
2017-05-13T14:43:17.237Z,40.69
2017-05-13T14:44:27.496Z,40.38
2017-05-13T14:45:37.135Z,40.19
2017-05-13T14:46:46.778Z,40.29
2017-05-13T14:47:57.046Z,40.67
2017-05-13T14:49:07.001Z,40.29
2017-05-13T14:50:16.640Z,39.62
2017-05-13T14:51:26.601Z,41.44
2017-05-13T14:52:36.868Z,41.24
2017-05-13T14:53:47.131Z,40.58
2017-05-13T14:54:57.398Z,40.29
2017-05-13T14:56:07.350Z,39.62
2017-05-13T14:57:17.626Z,40.29
2017-05-13T14:58:27.891Z,40.29
2017-05-13T14:59:38.159Z,40.77
2017-05-13T15:00:48.426Z,40.19
2017-05-13T15:01:58.700Z,40.41
2017-05-13T15:03:08.969Z,39.45
2017-05-13T15:04:18.927Z,39.73
2017-05-13T15:05:29.191Z,40.38
2017-05-13T15:06:39.460Z,40.38